createdAt,value
2024-01-03T00:00:44.821Z,9.85
2024-01-03T00:03:13.429Z,9.75
2024-01-03T00:05:42.660Z,9.55
2024-01-03T00:08:38.104Z,9.47
2024-01-03T00:11:05.459Z,9.61
2024-01-03T00:13:34.638Z,9.60
2024-01-03T00:16:01.148Z,9.56
2024-01-03T00:18:37.618Z,9.62
2024-01-03T00:21:08.320Z,9.30
2024-01-03T00:23:39.952Z,9.67
2024-01-03T00:26:10.600Z,9.66
2024-01-03T00:28:37.727Z,9.66
2024-01-03T00:31:04.642Z,9.54
2024-01-03T00:33:31.282Z,9.52
2024-01-03T00:35:58.323Z,9.22
2024-01-03T00:38:25.172Z,9.29
2024-01-03T00:41:00.870Z,9.58
2024-01-03T00:43:27.325Z,9.73
2024-01-03T00:45:53.932Z,9.66
2024-01-03T00:48:20.973Z,9.52
2024-01-03T00:50:51.863Z,9.77
2024-01-03T00:53:18.570Z,9.77
2024-01-03T00:55:45.308Z,9.27
2024-01-03T00:58:12.487Z,9.75
2024-01-03T01:00:39.473Z,9.73
2024-01-03T01:03:06.680Z,9.48
2024-01-03T01:05:34.200Z,9.68
2024-01-03T01:08:00.910Z,9.65
2024-01-03T01:10:27.478Z,9.35
2024-01-03T01:12:54.570Z,9.62
2024-01-03T01:15:21.400Z,9.59
2024-01-03T01:17:48.565Z,9.64
2024-01-03T01:20:15.339Z,9.65
2024-01-03T01:22:41.961Z,9.79
2024-01-03T01:25:08.653Z,9.67
2024-01-03T01:27:35.256Z,9.69
2024-01-03T01:30:01.771Z,9.78
2024-01-03T01:32:28.368Z,9.98
2024-01-03T01:34:55.049Z,10.06
2024-01-03T01:37:21.540Z,9.71
2024-01-03T01:39:48.049Z,9.98
2024-01-03T01:42:14.505Z,10.14
2024-01-03T01:44:41.020Z,10.00
2024-01-03T01:47:10.782Z,10.16
2024-01-03T01:49:40.959Z,10.20
2024-01-03T01:52:11.845Z,10.10
2024-01-03T01:54:38.980Z,10.21
2024-01-03T01:57:06.385Z,10.19
2024-01-03T01:59:33.736Z,10.33
2024-01-03T02:02:00.835Z,10.33
2024-01-03T02:04:28.718Z,10.36
2024-01-03T02:06:56.138Z,10.39
2024-01-03T02:09:22.592Z,10.36
2024-01-03T02:11:49.523Z,10.33
2024-01-03T02:14:16.235Z,10.42
2024-01-03T02:16:43.077Z,10.30
2024-01-03T02:19:09.569Z,10.39
2024-01-03T02:21:36.201Z,10.42
2024-01-03T02:24:05.883Z,10.43
2024-01-03T02:26:32.710Z,10.44
2024-01-03T02:28:59.225Z,10.46
2024-01-03T02:31:25.751Z,10.41
2024-01-03T02:33:52.337Z,10.23
2024-01-03T02:36:19.028Z,10.31
2024-01-03T02:38:49.390Z,10.50
2024-01-03T02:41:16.497Z,10.38
2024-01-03T02:43:42.954Z,10.31
2024-01-03T02:46:09.506Z,10.52
2024-01-03T02:48:39.996Z,10.37
2024-01-03T02:51:06.565Z,10.10
2024-01-03T02:53:33.470Z,10.34
2024-01-03T02:56:00.034Z,10.54
2024-01-03T02:58:26.550Z,10.50
2024-01-03T03:00:53.142Z,10.23
2024-01-03T03:03:19.679Z,10.54
2024-01-03T03:05:46.293Z,10.23
2024-01-03T03:08:13.817Z,10.58
2024-01-03T03:10:40.370Z,10.53
2024-01-03T03:13:06.836Z,10.46
2024-01-03T03:15:33.272Z,10.40
2024-01-03T03:17:59.872Z,10.58
2024-01-03T03:20:26.784Z,10.63
2024-01-03T03:22:53.307Z,10.37
2024-01-03T03:25:19.817Z,10.62
2024-01-03T03:27:46.342Z,10.44
2024-01-03T03:30:12.978Z,10.63
2024-01-03T03:32:39.600Z,10.39
2024-01-03T03:35:06.381Z,10.66
2024-01-03T03:37:32.954Z,10.64
2024-01-03T03:39:59.562Z,10.49
2024-01-03T03:42:26.165Z,10.64
2024-01-03T03:44:55.299Z,10.65
2024-01-03T03:47:21.799Z,10.49
2024-01-03T03:49:48.441Z,10.67
2024-01-03T03:52:14.971Z,10.53
2024-01-03T03:54:41.484Z,10.28
2024-01-03T03:57:07.947Z,10.67
2024-01-03T03:59:35.084Z,10.68
2024-01-03T04:02:01.572Z,10.68
2024-01-03T04:04:28.073Z,10.57
2024-01-03T04:06:54.626Z,10.70
2024-01-03T04:09:21.927Z,10.68
2024-01-03T04:11:48.459Z,10.68
2024-01-03T04:14:15.069Z,10.68
2024-01-03T04:16:41.600Z,10.68
2024-01-03T04:19:08.268Z,10.62
2024-01-03T04:21:35.150Z,10.39
2024-01-03T04:24:01.654Z,10.39
2024-01-03T04:26:29.910Z,10.70
2024-01-03T04:28:56.471Z,10.68
2024-01-03T04:31:22.989Z,10.59
2024-01-03T04:33:50.159Z,10.66
2024-01-03T04:36:16.736Z,10.61
2024-01-03T04:38:43.219Z,10.58
2024-01-03T04:41:09.769Z,10.11
2024-01-03T04:43:36.762Z,10.41
2024-01-03T04:46:03.298Z,10.39
2024-01-03T04:48:29.873Z,10.64
2024-01-03T04:50:56.521Z,10.64
2024-01-03T04:53:23.020Z,10.63
2024-01-03T04:55:49.485Z,10.64
2024-01-03T04:58:15.948Z,10.63
2024-01-03T05:00:43.691Z,10.64
2024-01-03T05:03:10.251Z,10.62
2024-01-03T05:05:36.950Z,10.14
2024-01-03T05:08:04.051Z,10.57
2024-01-03T05:10:31.575Z,10.56
2024-01-03T05:12:58.015Z,10.64
2024-01-03T05:15:24.484Z,10.65
2024-01-03T05:17:52.504Z,10.51
2024-01-03T05:20:20.263Z,10.62
2024-01-03T05:22:46.724Z,10.64
2024-01-03T05:25:13.356Z,10.40
2024-01-03T05:27:39.938Z,10.61
2024-01-03T05:30:07.216Z,10.12
2024-01-03T05:32:34.104Z,10.58
2024-01-03T05:35:00.596Z,10.62
2024-01-03T05:37:27.050Z,10.45
2024-01-03T05:39:53.537Z,10.65
2024-01-03T05:42:20.002Z,10.67
2024-01-03T05:44:46.494Z,10.51
2024-01-03T05:47:13.103Z,10.62
2024-01-03T05:49:39.652Z,10.25
2024-01-03T05:52:06.513Z,10.21
2024-01-03T05:54:34.124Z,10.43
2024-01-03T05:57:02.105Z,10.53
2024-01-03T05:59:28.758Z,10.56
2024-01-03T06:01:55.504Z,10.58
2024-01-03T06:04:22.122Z,10.55
2024-01-03T06:06:48.662Z,9.98
2024-01-03T06:09:15.194Z,9.87
2024-01-03T06:11:41.697Z,10.42
2024-01-03T06:14:08.315Z,10.44
2024-01-03T06:16:34.753Z,10.34
2024-01-03T06:19:01.386Z,10.46
2024-01-03T06:21:27.957Z,10.43
2024-01-03T06:23:54.483Z,10.44
2024-01-03T06:26:21.129Z,10.47
2024-01-03T06:28:47.696Z,10.32
2024-01-03T06:31:14.296Z,10.39
2024-01-03T06:33:41.034Z,10.26
2024-01-03T06:36:07.880Z,10.02
2024-01-03T06:38:34.446Z,10.17
2024-01-03T06:41:00.998Z,10.21
2024-01-03T06:43:27.471Z,10.17
2024-01-03T06:45:54.015Z,10.24
2024-01-03T06:48:21.079Z,10.21
2024-01-03T06:50:47.951Z,10.23
2024-01-03T06:53:14.867Z,10.10
2024-01-03T06:55:41.472Z,10.35
2024-01-03T06:58:08.148Z,10.89
2024-01-03T07:00:34.919Z,11.16
2024-01-03T07:03:02.524Z,11.39
2024-01-03T07:05:29.240Z,11.64
2024-01-03T07:07:57.562Z,11.81
2024-01-03T07:10:24.085Z,12.01
2024-01-03T07:12:50.542Z,11.94
2024-01-03T07:15:19.056Z,12.06
2024-01-03T07:17:45.967Z,12.13
2024-01-03T07:20:12.659Z,11.87
2024-01-03T07:22:39.101Z,12.14
2024-01-03T07:25:05.897Z,12.17
2024-01-03T07:27:33.360Z,12.11
2024-01-03T07:30:00.048Z,11.51
2024-01-03T07:32:26.912Z,11.84
2024-01-03T07:34:53.476Z,11.94
2024-01-03T07:37:20.292Z,11.90
2024-01-03T07:39:46.943Z,12.11
2024-01-03T07:42:13.514Z,12.14
2024-01-03T07:44:43.151Z,12.09
2024-01-03T07:47:11.660Z,11.53
2024-01-03T07:49:39.189Z,11.29
2024-01-03T07:52:06.060Z,11.76
2024-01-03T07:54:32.621Z,11.52
2024-01-03T07:56:59.200Z,11.72
2024-01-03T07:59:25.904Z,11.71
2024-01-03T08:01:52.636Z,11.30
2024-01-03T08:04:19.214Z,11.64
2024-01-03T08:06:45.917Z,11.53
2024-01-03T08:09:12.444Z,11.30
2024-01-03T08:11:39.020Z,10.63
2024-01-03T08:14:05.508Z,10.93
2024-01-03T08:16:31.943Z,10.68
2024-01-03T08:18:58.511Z,10.47
2024-01-03T08:21:25.187Z,10.31
2024-01-03T08:23:51.812Z,10.27
2024-01-03T08:26:20.759Z,10.01
2024-01-03T08:28:47.563Z,10.29
2024-01-03T08:31:18.396Z,10.30
2024-01-03T08:33:47.321Z,10.18
2024-01-03T08:36:16.059Z,10.19
2024-01-03T08:38:43.141Z,10.20
2024-01-03T08:41:17.917Z,10.23
2024-01-03T08:43:45.306Z,10.22
2024-01-03T08:46:12.106Z,10.23
2024-01-03T08:48:43.041Z,10.12
2024-01-03T08:51:18.343Z,10.11
2024-01-03T08:53:47.008Z,10.01
2024-01-03T08:56:19.120Z,9.98
2024-01-03T08:58:47.613Z,10.28
2024-01-03T09:01:22.825Z,10.29
2024-01-03T09:03:50.035Z,10.22
2024-01-03T09:06:24.288Z,10.31
2024-01-03T09:08:55.821Z,10.32
2024-01-03T09:11:27.353Z,10.20
2024-01-03T09:13:54.605Z,10.14
2024-01-03T09:16:23.702Z,10.25
2024-01-03T09:18:50.817Z,10.43
2024-01-03T09:21:17.450Z,10.02
2024-01-03T09:23:44.403Z,10.43
2024-01-03T09:26:11.967Z,10.26
2024-01-03T09:28:39.852Z,10.42
2024-01-03T09:31:06.802Z,10.54
2024-01-03T09:33:33.662Z,10.54
2024-01-03T09:36:00.746Z,10.33
2024-01-03T09:38:27.672Z,10.42
2024-01-03T09:40:54.219Z,10.42
2024-01-03T09:43:21.639Z,10.18
2024-01-03T09:45:48.874Z,10.21
2024-01-03T09:48:15.848Z,9.87
2024-01-03T09:50:42.944Z,9.94
2024-01-03T09:53:11.267Z,9.96
2024-01-03T09:55:39.122Z,9.96
2024-01-03T09:58:05.695Z,9.75
2024-01-03T10:00:32.346Z,9.90
2024-01-03T10:03:06.144Z,9.64
2024-01-03T10:05:32.959Z,9.82
2024-01-03T10:07:59.658Z,9.81
2024-01-03T10:10:31.681Z,9.76
2024-01-03T10:12:58.444Z,10.03
2024-01-03T10:15:33.010Z,10.01
2024-01-03T10:18:07.146Z,10.10
2024-01-03T10:20:36.064Z,9.70
2024-01-03T10:23:06.680Z,10.11
2024-01-03T10:25:33.531Z,10.18
2024-01-03T10:28:02.283Z,9.83
2024-01-03T10:30:29.564Z,10.03
2024-01-03T10:32:59.867Z,10.28
2024-01-03T10:35:33.630Z,10.31
2024-01-03T10:38:04.924Z,10.14
2024-01-03T10:40:33.400Z,9.87
2024-01-03T10:43:01.165Z,10.34
2024-01-03T10:45:28.825Z,10.32
2024-01-03T10:47:55.409Z,10.34
2024-01-03T10:50:22.118Z,10.26
2024-01-03T10:52:50.804Z,10.34
2024-01-03T10:55:17.220Z,10.37
2024-01-03T10:58:03.299Z,9.94
2024-01-03T11:00:48.156Z,10.40
2024-01-03T11:03:32.988Z,9.54
2024-01-03T11:06:20.925Z,10.31
2024-01-03T11:09:00.784Z,10.49
2024-01-03T11:11:37.947Z,10.50
2024-01-03T11:14:20.257Z,10.51
2024-01-03T11:16:47.356Z,10.46
2024-01-03T11:19:14.725Z,10.53
2024-01-03T11:21:46.832Z,10.56
2024-01-03T11:24:14.614Z,10.55
2024-01-03T11:26:57.102Z,10.56
2024-01-03T11:29:51.257Z,10.58
2024-01-03T11:32:39.111Z,10.50
2024-01-03T11:35:10.659Z,9.76
2024-01-03T11:37:40.264Z,10.51
2024-01-03T11:40:09.939Z,10.25
2024-01-03T11:42:39.605Z,10.30
2024-01-03T11:45:14.952Z,10.41
2024-01-03T11:47:46.298Z,10.23
2024-01-03T11:50:18.135Z,10.41
2024-01-03T11:52:50.543Z,10.46
2024-01-03T11:55:19.537Z,10.46
2024-01-03T11:57:50.716Z,10.43
2024-01-03T12:00:23.034Z,10.51
2024-01-03T12:02:57.950Z,10.33
2024-01-03T12:05:26.902Z,10.68
2024-01-03T12:07:55.347Z,10.64
2024-01-03T12:10:22.569Z,10.53
2024-01-03T12:12:52.473Z,10.75
2024-01-03T12:15:38.588Z,10.66
2024-01-03T12:18:15.049Z,10.87
2024-01-03T12:20:41.827Z,10.84
2024-01-03T12:23:14.910Z,11.23
2024-01-03T12:25:42.392Z,11.07
2024-01-03T12:28:19.198Z,10.98
2024-01-03T12:30:45.881Z,10.92
2024-01-03T12:33:15.588Z,10.67
2024-01-03T12:35:46.488Z,10.89
2024-01-03T12:38:13.310Z,10.82
2024-01-03T12:40:40.577Z,10.80
2024-01-03T12:43:07.655Z,10.22
2024-01-03T12:45:34.311Z,10.63
2024-01-03T12:48:01.024Z,10.73
2024-01-03T12:50:27.633Z,10.61
2024-01-03T12:52:54.228Z,10.64
2024-01-03T12:55:20.682Z,10.63
2024-01-03T12:57:47.230Z,10.47
2024-01-03T13:00:14.528Z,10.49
2024-01-03T13:02:41.082Z,10.54
2024-01-03T13:05:08.078Z,10.55
2024-01-03T13:07:34.702Z,10.52
2024-01-03T13:10:02.534Z,10.41
2024-01-03T13:12:29.103Z,10.43
2024-01-03T13:14:56.109Z,10.43
2024-01-03T13:17:24.441Z,10.59
2024-01-03T13:19:51.375Z,10.62
2024-01-03T13:22:18.805Z,10.47
2024-01-03T13:24:45.542Z,10.64
2024-01-03T13:27:12.089Z,10.65
2024-01-03T13:29:38.576Z,10.63
2024-01-03T13:32:06.668Z,10.55
2024-01-03T13:34:34.550Z,10.60
2024-01-03T13:37:01.274Z,10.53
2024-01-03T13:39:27.994Z,10.43
2024-01-03T13:41:55.381Z,10.36
2024-01-03T13:44:21.935Z,10.30
2024-01-03T13:46:48.908Z,10.28
2024-01-03T13:49:15.520Z,9.91
2024-01-03T13:51:42.028Z,10.10
2024-01-03T13:54:08.558Z,9.77
2024-01-03T13:56:35.566Z,10.02
2024-01-03T13:59:02.050Z,10.03
2024-01-03T14:01:28.894Z,10.06
2024-01-03T14:03:55.458Z,10.10
2024-01-03T14:06:22.795Z,9.96
2024-01-03T14:08:49.394Z,9.87
2024-01-03T14:11:22.100Z,9.96
2024-01-03T14:13:49.249Z,9.94
2024-01-03T14:16:15.703Z,9.96
2024-01-03T14:18:42.292Z,9.82
2024-01-03T14:21:09.176Z,10.07
2024-01-03T14:23:38.465Z,9.90
2024-01-03T14:26:11.413Z,9.88
2024-01-03T14:28:39.703Z,10.05
2024-01-03T14:31:08.414Z,10.14
2024-01-03T14:33:36.514Z,10.20
2024-01-03T14:36:03.960Z,10.12
2024-01-03T14:38:31.211Z,10.08
2024-01-03T14:40:57.741Z,10.12
2024-01-03T14:43:34.211Z,10.22
2024-01-03T14:46:02.912Z,9.90
2024-01-03T14:48:33.439Z,10.16
2024-01-03T14:51:05.924Z,9.73
2024-01-03T14:53:33.377Z,9.75
2024-01-03T14:56:00.094Z,9.85
2024-01-03T14:58:27.309Z,9.73
2024-01-03T15:00:54.424Z,9.69
2024-01-03T15:03:21.130Z,9.66
2024-01-03T15:05:48.050Z,9.63
2024-01-03T15:08:17.250Z,9.40
2024-01-03T15:10:44.898Z,9.60
2024-01-03T15:13:11.983Z,9.56
2024-01-03T15:15:38.843Z,9.30
2024-01-03T15:18:06.293Z,9.51
2024-01-03T15:20:34.011Z,9.41
2024-01-03T15:23:01.293Z,9.39
2024-01-03T15:25:28.589Z,9.52
2024-01-03T15:28:04.984Z,9.26
2024-01-03T15:30:35.404Z,9.57
2024-01-03T15:33:02.530Z,9.30
2024-01-03T15:35:31.749Z,9.63
2024-01-03T15:37:59.246Z,9.63
2024-01-03T15:40:26.258Z,9.61
2024-01-03T15:42:54.252Z,9.56
2024-01-03T15:45:21.086Z,9.68
2024-01-03T15:47:48.934Z,9.67
2024-01-03T15:50:15.989Z,9.69
2024-01-03T15:52:42.905Z,9.46
2024-01-03T15:55:10.005Z,9.68
2024-01-03T15:57:37.526Z,9.70
2024-01-03T16:00:06.759Z,9.58
2024-01-03T16:02:33.349Z,9.72
2024-01-03T16:05:00.540Z,9.70
2024-01-03T16:07:27.043Z,9.72
2024-01-03T16:09:53.594Z,9.70
2024-01-03T16:12:20.036Z,9.72
2024-01-03T16:14:48.887Z,9.77
2024-01-03T16:17:18.228Z,9.53
2024-01-03T16:19:45.799Z,9.59
2024-01-03T16:22:13.940Z,9.43
2024-01-03T16:24:41.179Z,9.69
2024-01-03T16:27:18.856Z,9.12
2024-01-03T16:29:46.117Z,9.67
2024-01-03T16:32:13.790Z,9.32
2024-01-03T16:34:40.410Z,9.55
2024-01-03T16:37:13.118Z,9.69
2024-01-03T16:39:39.786Z,9.65
2024-01-03T16:42:06.548Z,9.65
2024-01-03T16:44:33.284Z,9.67
2024-01-03T16:47:00.181Z,9.74
2024-01-03T16:49:27.101Z,9.79
2024-01-03T16:51:57.266Z,9.76
2024-01-03T16:54:25.384Z,9.88
2024-01-03T16:56:51.973Z,9.86
2024-01-03T16:59:21.401Z,9.92
2024-01-03T17:01:48.126Z,9.89
2024-01-03T17:04:16.111Z,9.63
2024-01-03T17:06:46.268Z,9.68
2024-01-03T17:09:16.863Z,9.39
2024-01-03T17:11:44.461Z,9.75
2024-01-03T17:14:11.151Z,9.71
2024-01-03T17:16:37.801Z,9.73
2024-01-03T17:19:04.821Z,9.75
2024-01-03T17:21:33.241Z,9.71
2024-01-03T17:24:00.192Z,9.68
2024-01-03T17:26:27.983Z,9.64
2024-01-03T17:28:57.582Z,9.41
2024-01-03T17:31:24.774Z,9.58
2024-01-03T17:33:51.579Z,9.65
2024-01-03T17:36:18.457Z,9.63
2024-01-03T17:38:48.073Z,9.60
2024-01-03T17:41:22.441Z,9.64
2024-01-03T17:43:49.054Z,9.50
2024-01-03T17:46:17.984Z,9.49
2024-01-03T17:48:46.672Z,9.49
2024-01-03T17:51:15.491Z,9.65
2024-01-03T17:53:42.034Z,9.08
2024-01-03T17:56:12.052Z,9.63
2024-01-03T17:58:40.801Z,9.63
2024-01-03T18:01:07.682Z,9.51
2024-01-03T18:03:37.698Z,9.38
2024-01-03T18:06:04.706Z,9.06
2024-01-03T18:08:32.048Z,9.63
2024-01-03T18:10:59.223Z,9.54
2024-01-03T18:13:26.135Z,9.38
2024-01-03T18:15:53.626Z,9.54
2024-01-03T18:18:20.459Z,9.42
2024-01-03T18:20:47.519Z,9.61
2024-01-03T18:23:18.552Z,9.49
2024-01-03T18:25:49.490Z,9.57
2024-01-03T18:28:16.871Z,9.56
2024-01-03T18:30:46.413Z,9.52
2024-01-03T18:33:13.937Z,9.53
2024-01-03T18:35:41.728Z,9.51
2024-01-03T18:38:08.667Z,9.50
2024-01-03T18:40:35.732Z,9.39
2024-01-03T18:43:05.300Z,9.50
2024-01-03T18:45:32.831Z,9.44
2024-01-03T18:47:59.564Z,9.50
2024-01-03T18:50:26.385Z,9.36
2024-01-03T18:52:53.014Z,9.46
2024-01-03T18:55:21.001Z,9.45
2024-01-03T18:57:48.868Z,9.40
2024-01-03T19:00:16.117Z,9.24
2024-01-03T19:02:42.785Z,9.43
2024-01-03T19:05:10.756Z,9.24
2024-01-03T19:07:37.481Z,9.42
2024-01-03T19:10:04.218Z,9.42
2024-01-03T19:12:30.652Z,9.40
2024-01-03T19:14:57.157Z,9.41
2024-01-03T19:17:23.660Z,9.39
2024-01-03T19:19:50.377Z,9.38
2024-01-03T19:22:16.998Z,9.37
2024-01-03T19:24:43.445Z,9.29
2024-01-03T19:27:10.182Z,9.28
2024-01-03T19:29:37.920Z,9.33
2024-01-03T19:32:04.685Z,9.19
2024-01-03T19:34:31.279Z,9.38
2024-01-03T19:36:57.750Z,9.17
2024-01-03T19:39:24.490Z,9.19
2024-01-03T19:41:51.069Z,9.35
2024-01-03T19:44:19.028Z,9.15
2024-01-03T19:46:45.625Z,9.14
2024-01-03T19:49:15.908Z,9.04
2024-01-03T19:51:42.952Z,9.22
2024-01-03T19:54:09.957Z,9.26
2024-01-03T19:56:43.370Z,9.22
2024-01-03T19:59:10.317Z,9.01
2024-01-03T20:01:36.802Z,9.04
2024-01-03T20:04:03.483Z,9.14
2024-01-03T20:06:30.683Z,9.18
2024-01-03T20:08:58.012Z,9.15
2024-01-03T20:11:24.836Z,9.11
2024-01-03T20:13:51.769Z,9.20
2024-01-03T20:16:18.241Z,9.02
2024-01-03T20:18:45.128Z,9.08
2024-01-03T20:21:12.422Z,8.95
2024-01-03T20:23:41.417Z,9.14
2024-01-03T20:26:16.883Z,9.14
2024-01-03T20:28:45.340Z,9.13
2024-01-03T20:31:15.920Z,9.14
2024-01-03T20:33:42.849Z,9.11
2024-01-03T20:36:09.781Z,9.01
2024-01-03T20:38:37.204Z,9.05
2024-01-03T20:41:04.756Z,8.96
2024-01-03T20:43:36.690Z,8.83
2024-01-03T20:46:04.415Z,8.94
2024-01-03T20:48:32.835Z,8.89
2024-01-03T20:50:59.462Z,9.01
2024-01-03T20:53:25.996Z,9.01
2024-01-03T20:55:52.456Z,8.73
2024-01-03T20:58:18.952Z,8.98
2024-01-03T21:00:45.538Z,8.95
2024-01-03T21:03:12.198Z,8.87
2024-01-03T21:05:38.835Z,8.94
2024-01-03T21:08:06.584Z,8.54
2024-01-03T21:10:33.052Z,8.99
2024-01-03T21:13:02.956Z,8.95
2024-01-03T21:15:29.720Z,8.95
2024-01-03T21:17:56.288Z,9.00
2024-01-03T21:20:22.849Z,9.00
2024-01-03T21:22:49.312Z,8.96
2024-01-03T21:25:15.863Z,8.21
2024-01-03T21:27:47.272Z,8.90
2024-01-03T21:30:18.498Z,8.85
2024-01-03T21:32:45.526Z,9.01
2024-01-03T21:35:12.100Z,8.62
2024-01-03T21:37:38.641Z,8.74
2024-01-03T21:40:05.638Z,8.87
2024-01-03T21:42:32.599Z,8.87
2024-01-03T21:45:08.108Z,8.83
2024-01-03T21:47:39.584Z,8.37
2024-01-03T21:50:06.975Z,8.95
2024-01-03T21:52:33.771Z,8.98
2024-01-03T21:55:00.202Z,8.86
2024-01-03T21:57:26.765Z,8.82
2024-01-03T21:59:58.332Z,8.83
2024-01-03T22:02:25.859Z,8.92
2024-01-03T22:04:52.432Z,8.83
2024-01-03T22:07:18.931Z,8.98
2024-01-03T22:09:45.431Z,8.97
2024-01-03T22:12:12.048Z,8.97
2024-01-03T22:14:47.095Z,9.08
2024-01-03T22:17:14.073Z,9.01
2024-01-03T22:19:40.950Z,9.01
2024-01-03T22:22:07.551Z,9.07
2024-01-03T22:24:34.154Z,8.84
2024-01-03T22:27:00.750Z,9.06
2024-01-03T22:29:27.318Z,8.72
2024-01-03T22:31:53.809Z,8.79
2024-01-03T22:34:20.381Z,9.02
2024-01-03T22:36:46.974Z,8.93
2024-01-03T22:39:14.437Z,8.98
2024-01-03T22:41:41.697Z,8.98
2024-01-03T22:44:08.480Z,8.99
2024-01-03T22:46:44.053Z,8.86
2024-01-03T22:49:13.806Z,9.14
2024-01-03T22:51:43.958Z,9.08
2024-01-03T22:54:11.219Z,9.14
2024-01-03T22:56:38.808Z,9.05
2024-01-03T22:59:06.233Z,8.97
2024-01-03T23:01:35.390Z,9.02
2024-01-03T23:04:01.953Z,9.04
2024-01-03T23:06:28.888Z,9.04
2024-01-03T23:08:55.378Z,9.06
2024-01-03T23:11:21.937Z,8.93
2024-01-03T23:13:48.438Z,9.07
2024-01-03T23:16:15.057Z,9.05
2024-01-03T23:18:41.860Z,8.63
2024-01-03T23:21:16.088Z,8.64
2024-01-03T23:23:42.790Z,9.05
2024-01-03T23:26:09.324Z,8.79
2024-01-03T23:28:35.770Z,8.85
2024-01-03T23:31:02.399Z,9.04
2024-01-03T23:33:29.129Z,8.80
2024-01-03T23:35:55.710Z,9.04
2024-01-03T23:38:22.171Z,9.00
2024-01-03T23:40:48.708Z,9.04
2024-01-03T23:43:15.180Z,9.02
2024-01-03T23:45:41.995Z,9.02
2024-01-03T23:48:09.360Z,8.87
2024-01-03T23:50:36.757Z,9.04
2024-01-03T23:53:05.313Z,9.00
2024-01-03T23:55:32.738Z,8.77
2024-01-03T23:57:59.673Z,8.63
